Terminal Aerodrome Forecast
Issued by NWS

Home | Current Version | Previous Version | Graphics & Text | Print | Product List | Glossary On
Versions: 1 2 3 4 5 6 7 8 9 10 11 12 13 14 15 16 17
106
FTUS43 KTOP 240942 AAB
TAFFOE
TAF AMD
KFOE 240942Z 2410/2506 02012KT 6SM TSRA SCT015 OVC050CB
      TEMPO 2410/2412 36015G25KT 2SM TSRA BKN015CB
     FM241600 16008KT P6SM SCT025 BKN150=

USA.gov is the U.S. government's official web portal to all federal, state and local government web resources and services.